sensor_id;sensor_type;location;lat;lon;timestamp;P1;durP1;ratioP1;P2;durP2;ratioP2
15944;SDS011;30172;48.832;8.732;2022-10-15T00:00:46;1.27;;;0.80;;
15944;SDS011;30172;48.832;8.732;2022-10-15T00:03:11;1.33;;;0.80;;
15944;SDS011;30172;48.832;8.732;2022-10-15T00:05:37;1.17;;;0.70;;
15944;SDS011;30172;48.832;8.732;2022-10-15T00:08:03;2.43;;;0.80;;
15944;SDS011;30172;48.832;8.732;2022-10-15T00:10:29;0.63;;;0.63;;
15944;SDS011;30172;48.832;8.732;2022-10-15T00:12:55;2.30;;;0.70;;
15944;SDS011;30172;48.832;8.732;2022-10-15T00:15:20;1.20;;;0.80;;
15944;SDS011;30172;48.832;8.732;2022-10-15T00:17:45;0.80;;;0.60;;
15944;SDS011;30172;48.832;8.732;2022-10-15T00:20:10;0.97;;;0.70;;
15944;SDS011;30172;48.832;8.732;2022-10-15T00:22:36;1.77;;;0.90;;
15944;SDS011;30172;48.832;8.732;2022-10-15T00:25:02;1.97;;;0.70;;
15944;SDS011;30172;48.832;8.732;2022-10-15T00:27:28;0.97;;;0.87;;
15944;SDS011;30172;48.832;8.732;2022-10-15T00:29:53;0.80;;;0.77;;
15944;SDS011;30172;48.832;8.732;2022-10-15T00:32:19;1.53;;;0.67;;
15944;SDS011;30172;48.832;8.732;2022-10-15T00:34:45;1.27;;;0.60;;
15944;SDS011;30172;48.832;8.732;2022-10-15T00:37:10;0.90;;;0.90;;
15944;SDS011;30172;48.832;8.732;2022-10-15T00:39:35;1.30;;;1.20;;
15944;SDS011;30172;48.832;8.732;2022-10-15T00:42:01;1.63;;;0.70;;
15944;SDS011;30172;48.832;8.732;2022-10-15T00:46:56;0.80;;;0.80;;
15944;SDS011;30172;48.832;8.732;2022-10-15T00:49:29;2.20;;;0.80;;
15944;SDS011;30172;48.832;8.732;2022-10-15T00:52:09;1.60;;;0.70;;
15944;SDS011;30172;48.832;8.732;2022-10-15T00:54:39;0.97;;;0.87;;
15944;SDS011;30172;48.832;8.732;2022-10-15T00:57:05;0.57;;;0.57;;
15944;SDS011;30172;48.832;8.732;2022-10-15T00:59:31;0.60;;;0.60;;
15944;SDS011;30172;48.832;8.732;2022-10-15T01:01:58;0.50;;;0.50;;
15944;SDS011;30172;48.832;8.732;2022-10-15T01:04:24;1.03;;;0.70;;
15944;SDS011;30172;48.832;8.732;2022-10-15T01:06:50;1.43;;;0.60;;
15944;SDS011;30172;48.832;8.732;2022-10-15T01:09:15;1.50;;;0.57;;
15944;SDS011;30172;48.832;8.732;2022-10-15T01:11:45;0.50;;;0.47;;
15944;SDS011;30172;48.832;8.732;2022-10-15T01:14:22;0.40;;;0.40;;
15944;SDS011;30172;48.832;8.732;2022-10-15T01:16:53;1.03;;;0.40;;
15944;SDS011;30172;48.832;8.732;2022-10-15T01:22:08;1.40;;;0.40;;
15944;SDS011;30172;48.832;8.732;2022-10-15T01:24:42;0.53;;;0.50;;
15944;SDS011;30172;48.832;8.732;2022-10-15T01:27:22;1.27;;;0.40;;
15944;SDS011;30172;48.832;8.732;2022-10-15T01:32:41;0.53;;;0.43;;
15944;SDS011;30172;48.832;8.732;2022-10-15T01:35:28;0.70;;;0.30;;
15944;SDS011;30172;48.832;8.732;2022-10-15T01:37:59;0.30;;;0.30;;
15944;SDS011;30172;48.832;8.732;2022-10-15T01:40:33;0.20;;;0.20;;
15944;SDS011;30172;48.832;8.732;2022-10-15T01:43:03;0.20;;;0.20;;
15944;SDS011;30172;48.832;8.732;2022-10-15T01:45:36;1.83;;;0.30;;
15944;SDS011;30172;48.832;8.732;2022-10-15T01:48:05;1.53;;;0.30;;
15944;SDS011;30172;48.832;8.732;2022-10-15T01:50:33;1.07;;;0.30;;
15944;SDS011;30172;48.832;8.732;2022-10-15T01:53:00;0.40;;;0.30;;
15944;SDS011;30172;48.832;8.732;2022-10-15T01:55:26;0.60;;;0.20;;
15944;SDS011;30172;48.832;8.732;2022-10-15T01:57:51;0.30;;;0.30;;
15944;SDS011;30172;48.832;8.732;2022-10-15T02:00:19;1.13;;;0.30;;
15944;SDS011;30172;48.832;8.732;2022-10-15T02:02:44;0.50;;;0.20;;
15944;SDS011;30172;48.832;8.732;2022-10-15T02:05:16;1.45;;;0.30;;
15944;SDS011;30172;48.832;8.732;2022-10-15T02:10:41;0.37;;;0.30;;
15944;SDS011;30172;48.832;8.732;2022-10-15T02:15:44;0.30;;;0.30;;
15944;SDS011;30172;48.832;8.732;2022-10-15T02:18:22;1.45;;;0.30;;
15944;SDS011;30172;48.832;8.732;2022-10-15T02:20:50;0.40;;;0.40;;
15944;SDS011;30172;48.832;8.732;2022-10-15T02:23:22;0.30;;;0.20;;
15944;SDS011;30172;48.832;8.732;2022-10-15T02:25:51;1.50;;;0.30;;
15944;SDS011;30172;48.832;8.732;2022-10-15T02:28:17;1.17;;;0.50;;
15944;SDS011;30172;48.832;8.732;2022-10-15T02:30:44;1.13;;;0.30;;
15944;SDS011;30172;48.832;8.732;2022-10-15T02:33:12;1.13;;;0.20;;
15944;SDS011;30172;48.832;8.732;2022-10-15T02:35:41;1.27;;;0.30;;
15944;SDS011;30172;48.832;8.732;2022-10-15T02:38:07;1.20;;;0.30;;
15944;SDS011;30172;48.832;8.732;2022-10-15T02:40:33;0.50;;;0.30;;
15944;SDS011;30172;48.832;8.732;2022-10-15T02:42:59;1.50;;;0.50;;
15944;SDS011;30172;48.832;8.732;2022-10-15T02:45:24;0.30;;;0.28;;
15944;SDS011;30172;48.832;8.732;2022-10-15T02:47:50;0.20;;;0.20;;
15944;SDS011;30172;48.832;8.732;2022-10-15T02:50:15;0.20;;;0.20;;
15944;SDS011;30172;48.832;8.732;2022-10-15T02:52:40;0.30;;;0.22;;
15944;SDS011;30172;48.832;8.732;2022-10-15T02:55:05;0.20;;;0.20;;
15944;SDS011;30172;48.832;8.732;2022-10-15T02:57:31;1.27;;;0.20;;
15944;SDS011;30172;48.832;8.732;2022-10-15T02:59:56;0.40;;;0.30;;
15944;SDS011;30172;48.832;8.732;2022-10-15T03:02:22;0.30;;;0.30;;
15944;SDS011;30172;48.832;8.732;2022-10-15T03:04:47;0.30;;;0.30;;
15944;SDS011;30172;48.832;8.732;2022-10-15T03:07:12;0.20;;;0.20;;
15944;SDS011;30172;48.832;8.732;2022-10-15T03:09:38;0.20;;;0.20;;
15944;SDS011;30172;48.832;8.732;2022-10-15T03:12:03;0.77;;;0.30;;
15944;SDS011;30172;48.832;8.732;2022-10-15T03:14:28;1.10;;;0.30;;
15944;SDS011;30172;48.832;8.732;2022-10-15T03:16:54;0.25;;;0.20;;
15944;SDS011;30172;48.832;8.732;2022-10-15T03:19:19;0.20;;;0.20;;
15944;SDS011;30172;48.832;8.732;2022-10-15T03:21:44;0.30;;;0.23;;
15944;SDS011;30172;48.832;8.732;2022-10-15T03:24:10;0.30;;;0.30;;
15944;SDS011;30172;48.832;8.732;2022-10-15T03:26:35;0.20;;;0.20;;
15944;SDS011;30172;48.832;8.732;2022-10-15T03:29:00;0.20;;;0.20;;
15944;SDS011;30172;48.832;8.732;2022-10-15T03:31:26;1.83;;;0.30;;
15944;SDS011;30172;48.832;8.732;2022-10-15T03:33:51;0.20;;;0.20;;
15944;SDS011;30172;48.832;8.732;2022-10-15T03:36:16;1.23;;;0.40;;
15944;SDS011;30172;48.832;8.732;2022-10-15T03:38:41;0.30;;;0.30;;
15944;SDS011;30172;48.832;8.732;2022-10-15T03:41:07;0.30;;;0.30;;
15944;SDS011;30172;48.832;8.732;2022-10-15T03:43:32;0.90;;;0.30;;
15944;SDS011;30172;48.832;8.732;2022-10-15T03:46:01;1.38;;;0.30;;
15944;SDS011;30172;48.832;8.732;2022-10-15T03:48:27;0.28;;;0.28;;
15944;SDS011;30172;48.832;8.732;2022-10-15T03:50:53;0.30;;;0.30;;
15944;SDS011;30172;48.832;8.732;2022-10-15T03:53:18;0.30;;;0.30;;
15944;SDS011;30172;48.832;8.732;2022-10-15T03:55:43;1.30;;;0.30;;
15944;SDS011;30172;48.832;8.732;2022-10-15T03:58:09;0.30;;;0.30;;
15944;SDS011;30172;48.832;8.732;2022-10-15T04:00:34;0.60;;;0.30;;
15944;SDS011;30172;48.832;8.732;2022-10-15T04:02:59;0.40;;;0.40;;
15944;SDS011;30172;48.832;8.732;2022-10-15T04:05:25;0.95;;;0.40;;
15944;SDS011;30172;48.832;8.732;2022-10-15T04:07:50;0.40;;;0.30;;
15944;SDS011;30172;48.832;8.732;2022-10-15T04:10:15;0.30;;;0.25;;
15944;SDS011;30172;48.832;8.732;2022-10-15T04:12:41;0.20;;;0.20;;
15944;SDS011;30172;48.832;8.732;2022-10-15T04:15:06;0.30;;;0.30;;
15944;SDS011;30172;48.832;8.732;2022-10-15T04:17:32;0.98;;;0.20;;
15944;SDS011;30172;48.832;8.732;2022-10-15T04:19:57;0.88;;;0.40;;
15944;SDS011;30172;48.832;8.732;2022-10-15T04:22:22;0.32;;;0.32;;
15944;SDS011;30172;48.832;8.732;2022-10-15T04:24:48;0.80;;;0.30;;
15944;SDS011;30172;48.832;8.732;2022-10-15T04:27:13;1.70;;;0.30;;
15944;SDS011;30172;48.832;8.732;2022-10-15T04:29:38;0.30;;;0.30;;
15944;SDS011;30172;48.832;8.732;2022-10-15T04:32:04;0.50;;;0.20;;
15944;SDS011;30172;48.832;8.732;2022-10-15T04:34:29;0.43;;;0.30;;
15944;SDS011;30172;48.832;8.732;2022-10-15T04:36:54;2.72;;;0.40;;
15944;SDS011;30172;48.832;8.732;2022-10-15T04:39:19;0.55;;;0.35;;
15944;SDS011;30172;48.832;8.732;2022-10-15T04:41:45;1.27;;;0.40;;
15944;SDS011;30172;48.832;8.732;2022-10-15T04:44:10;0.52;;;0.52;;
15944;SDS011;30172;48.832;8.732;2022-10-15T04:46:36;1.27;;;0.40;;
15944;SDS011;30172;48.832;8.732;2022-10-15T04:49:01;0.47;;;0.40;;
15944;SDS011;30172;48.832;8.732;2022-10-15T04:51:26;0.40;;;0.40;;
15944;SDS011;30172;48.832;8.732;2022-10-15T04:53:52;0.40;;;0.40;;
15944;SDS011;30172;48.832;8.732;2022-10-15T04:56:18;0.57;;;0.40;;
15944;SDS011;30172;48.832;8.732;2022-10-15T04:58:44;0.40;;;0.40;;
15944;SDS011;30172;48.832;8.732;2022-10-15T05:01:11;1.30;;;0.50;;
15944;SDS011;30172;48.832;8.732;2022-10-15T05:03:39;0.38;;;0.38;;
15944;SDS011;30172;48.832;8.732;2022-10-15T05:06:06;1.88;;;0.50;;
15944;SDS011;30172;48.832;8.732;2022-10-15T05:08:39;1.73;;;0.45;;
15944;SDS011;30172;48.832;8.732;2022-10-15T05:11:07;1.05;;;0.30;;
15944;SDS011;30172;48.832;8.732;2022-10-15T05:13:37;0.43;;;0.40;;
15944;SDS011;30172;48.832;8.732;2022-10-15T05:16:10;1.08;;;0.43;;
15944;SDS011;30172;48.832;8.732;2022-10-15T05:18:37;2.33;;;0.50;;
15944;SDS011;30172;48.832;8.732;2022-10-15T05:21:03;0.90;;;0.60;;
15944;SDS011;30172;48.832;8.732;2022-10-15T05:23:28;0.40;;;0.40;;
15944;SDS011;30172;48.832;8.732;2022-10-15T05:25:54;0.50;;;0.50;;
15944;SDS011;30172;48.832;8.732;2022-10-15T05:28:19;2.10;;;0.50;;
15944;SDS011;30172;48.832;8.732;2022-10-15T05:30:44;2.70;;;0.50;;
15944;SDS011;30172;48.832;8.732;2022-10-15T05:33:09;0.40;;;0.40;;
15944;SDS011;30172;48.832;8.732;2022-10-15T05:35:35;0.40;;;0.40;;
15944;SDS011;30172;48.832;8.732;2022-10-15T05:38:01;0.90;;;0.50;;
15944;SDS011;30172;48.832;8.732;2022-10-15T05:40:28;0.63;;;0.40;;
15944;SDS011;30172;48.832;8.732;2022-10-15T05:42:53;0.77;;;0.50;;
15944;SDS011;30172;48.832;8.732;2022-10-15T05:45:18;1.33;;;0.77;;
15944;SDS011;30172;48.832;8.732;2022-10-15T05:47:44;0.80;;;0.70;;
15944;SDS011;30172;48.832;8.732;2022-10-15T05:50:09;2.60;;;0.97;;
15944;SDS011;30172;48.832;8.732;2022-10-15T05:52:34;1.05;;;0.70;;
15944;SDS011;30172;48.832;8.732;2022-10-15T05:54:59;0.80;;;0.70;;
15944;SDS011;30172;48.832;8.732;2022-10-15T05:57:25;0.60;;;0.60;;
15944;SDS011;30172;48.832;8.732;2022-10-15T05:59:50;1.20;;;1.10;;
15944;SDS011;30172;48.832;8.732;2022-10-15T06:02:15;2.10;;;1.50;;
15944;SDS011;30172;48.832;8.732;2022-10-15T06:04:41;0.90;;;0.90;;
15944;SDS011;30172;48.832;8.732;2022-10-15T06:07:06;2.10;;;1.00;;
15944;SDS011;30172;48.832;8.732;2022-10-15T06:09:32;1.60;;;1.30;;
15944;SDS011;30172;48.832;8.732;2022-10-15T06:11:57;2.50;;;2.00;;
15944;SDS011;30172;48.832;8.732;2022-10-15T06:14:23;1.70;;;0.90;;
15944;SDS011;30172;48.832;8.732;2022-10-15T06:16:48;2.63;;;1.05;;
15944;SDS011;30172;48.832;8.732;2022-10-15T06:19:14;2.03;;;0.90;;
15944;SDS011;30172;48.832;8.732;2022-10-15T06:21:40;1.57;;;1.20;;
15944;SDS011;30172;48.832;8.732;2022-10-15T06:24:05;1.47;;;1.37;;
15944;SDS011;30172;48.832;8.732;2022-10-15T06:26:31;1.05;;;0.80;;
15944;SDS011;30172;48.832;8.732;2022-10-15T06:36:44;2.97;;;2.28;;
15944;SDS011;30172;48.832;8.732;2022-10-15T06:39:09;3.08;;;2.88;;
15944;SDS011;30172;48.832;8.732;2022-10-15T06:41:35;1.00;;;0.90;;
15944;SDS011;30172;48.832;8.732;2022-10-15T06:44:00;1.20;;;0.90;;
15944;SDS011;30172;48.832;8.732;2022-10-15T06:46:25;1.53;;;0.90;;
15944;SDS011;30172;48.832;8.732;2022-10-15T06:48:51;2.67;;;0.80;;
15944;SDS011;30172;48.832;8.732;2022-10-15T06:51:17;1.70;;;1.00;;
15944;SDS011;30172;48.832;8.732;2022-10-15T06:53:42;1.70;;;0.80;;
15944;SDS011;30172;48.832;8.732;2022-10-15T06:56:08;0.90;;;0.80;;
15944;SDS011;30172;48.832;8.732;2022-10-15T06:58:36;0.90;;;0.90;;
15944;SDS011;30172;48.832;8.732;2022-10-15T07:01:02;2.13;;;0.73;;
15944;SDS011;30172;48.832;8.732;2022-10-15T07:03:28;0.82;;;0.80;;
15944;SDS011;30172;48.832;8.732;2022-10-15T07:05:53;1.55;;;1.02;;
15944;SDS011;30172;48.832;8.732;2022-10-15T07:08:19;1.42;;;0.90;;
15944;SDS011;30172;48.832;8.732;2022-10-15T07:10:44;1.88;;;0.80;;
15944;SDS011;30172;48.832;8.732;2022-10-15T07:13:09;0.80;;;0.80;;
15944;SDS011;30172;48.832;8.732;2022-10-15T07:15:35;1.17;;;0.85;;
15944;SDS011;30172;48.832;8.732;2022-10-15T07:18:00;2.37;;;1.60;;
15944;SDS011;30172;48.832;8.732;2022-10-15T07:20:26;1.87;;;0.90;;
15944;SDS011;30172;48.832;8.732;2022-10-15T07:22:59;2.23;;;1.20;;
15944;SDS011;30172;48.832;8.732;2022-10-15T07:25:25;1.65;;;0.98;;
15944;SDS011;30172;48.832;8.732;2022-10-15T07:27:51;2.30;;;0.70;;
15944;SDS011;30172;48.832;8.732;2022-10-15T07:30:17;0.95;;;0.80;;
15944;SDS011;30172;48.832;8.732;2022-10-15T07:32:42;1.38;;;0.80;;
15944;SDS011;30172;48.832;8.732;2022-10-15T07:35:07;0.73;;;0.60;;
15944;SDS011;30172;48.832;8.732;2022-10-15T07:37:33;0.93;;;0.70;;
15944;SDS011;30172;48.832;8.732;2022-10-15T07:39:58;3.53;;;1.00;;
15944;SDS011;30172;48.832;8.732;2022-10-15T07:42:24;2.70;;;0.80;;
15944;SDS011;30172;48.832;8.732;2022-10-15T07:44:49;1.30;;;0.90;;
15944;SDS011;30172;48.832;8.732;2022-10-15T07:47:15;0.73;;;0.70;;
15944;SDS011;30172;48.832;8.732;2022-10-15T07:49:40;0.60;;;0.60;;
15944;SDS011;30172;48.832;8.732;2022-10-15T07:52:05;0.70;;;0.50;;
15944;SDS011;30172;48.832;8.732;2022-10-15T07:54:32;0.73;;;0.70;;
15944;SDS011;30172;48.832;8.732;2022-10-15T07:56:57;1.13;;;0.60;;
15944;SDS011;30172;48.832;8.732;2022-10-15T07:59:23;1.52;;;0.73;;
15944;SDS011;30172;48.832;8.732;2022-10-15T08:01:48;1.88;;;0.70;;
15944;SDS011;30172;48.832;8.732;2022-10-15T08:04:15;0.50;;;0.50;;
15944;SDS011;30172;48.832;8.732;2022-10-15T08:06:40;0.50;;;0.50;;
15944;SDS011;30172;48.832;8.732;2022-10-15T08:09:05;0.65;;;0.60;;
15944;SDS011;30172;48.832;8.732;2022-10-15T08:11:31;1.00;;;0.52;;
15944;SDS011;30172;48.832;8.732;2022-10-15T08:13:56;1.10;;;0.70;;
15944;SDS011;30172;48.832;8.732;2022-10-15T08:16:21;0.43;;;0.43;;
15944;SDS011;30172;48.832;8.732;2022-10-15T08:18:47;1.60;;;0.60;;
15944;SDS011;30172;48.832;8.732;2022-10-15T08:21:12;1.20;;;0.70;;
15944;SDS011;30172;48.832;8.732;2022-10-15T08:23:37;0.47;;;0.47;;
15944;SDS011;30172;48.832;8.732;2022-10-15T08:26:03;1.85;;;0.65;;
15944;SDS011;30172;48.832;8.732;2022-10-15T08:28:29;0.90;;;0.80;;
15944;SDS011;30172;48.832;8.732;2022-10-15T08:30:56;0.80;;;0.50;;
15944;SDS011;30172;48.832;8.732;2022-10-15T08:33:22;1.20;;;1.20;;
15944;SDS011;30172;48.832;8.732;2022-10-15T08:35:47;1.63;;;1.20;;
15944;SDS011;30172;48.832;8.732;2022-10-15T08:52:46;0.70;;;0.70;;
15944;SDS011;30172;48.832;8.732;2022-10-15T08:55:14;0.60;;;0.60;;
15944;SDS011;30172;48.832;8.732;2022-10-15T09:00:34;0.50;;;0.50;;
15944;SDS011;30172;48.832;8.732;2022-10-15T09:03:04;1.85;;;0.55;;
15944;SDS011;30172;48.832;8.732;2022-10-15T09:08:50;0.40;;;0.40;;
15944;SDS011;30172;48.832;8.732;2022-10-15T09:14:06;0.40;;;0.40;;
15944;SDS011;30172;48.832;8.732;2022-10-15T09:16:36;1.10;;;0.50;;
15944;SDS011;30172;48.832;8.732;2022-10-15T09:19:03;2.53;;;0.60;;
15944;SDS011;30172;48.832;8.732;2022-10-15T09:21:35;0.63;;;0.63;;
15944;SDS011;30172;48.832;8.732;2022-10-15T09:24:01;0.80;;;0.57;;
15944;SDS011;30172;48.832;8.732;2022-10-15T09:29:22;0.40;;;0.40;;
15944;SDS011;30172;48.832;8.732;2022-10-15T09:32:05;1.67;;;0.80;;
15944;SDS011;30172;48.832;8.732;2022-10-15T09:34:43;0.60;;;0.60;;
15944;SDS011;30172;48.832;8.732;2022-10-15T09:37:14;0.73;;;0.40;;
15944;SDS011;30172;48.832;8.732;2022-10-15T09:42:48;0.47;;;0.47;;
15944;SDS011;30172;48.832;8.732;2022-10-15T09:45:15;0.85;;;0.60;;
15944;SDS011;30172;48.832;8.732;2022-10-15T09:47:41;0.47;;;0.47;;
15944;SDS011;30172;48.832;8.732;2022-10-15T09:50:11;0.40;;;0.40;;
15944;SDS011;30172;48.832;8.732;2022-10-15T09:55:33;1.15;;;0.70;;
15944;SDS011;30172;48.832;8.732;2022-10-15T09:58:08;1.20;;;0.73;;
15944;SDS011;30172;48.832;8.732;2022-10-15T10:03:15;0.40;;;0.40;;
15944;SDS011;30172;48.832;8.732;2022-10-15T10:05:40;0.55;;;0.55;;
15944;SDS011;30172;48.832;8.732;2022-10-15T10:08:07;0.57;;;0.52;;
15944;SDS011;30172;48.832;8.732;2022-10-15T10:13:48;0.70;;;0.68;;
15944;SDS011;30172;48.832;8.732;2022-10-15T10:16:20;1.92;;;1.77;;
15944;SDS011;30172;48.832;8.732;2022-10-15T10:19:00;2.20;;;2.08;;
15944;SDS011;30172;48.832;8.732;2022-10-15T10:21:31;1.40;;;1.20;;
15944;SDS011;30172;48.832;8.732;2022-10-15T10:26:54;1.25;;;1.15;;
15944;SDS011;30172;48.832;8.732;2022-10-15T10:29:20;1.35;;;0.70;;
15944;SDS011;30172;48.832;8.732;2022-10-15T10:31:47;0.50;;;0.50;;
15944;SDS011;30172;48.832;8.732;2022-10-15T10:34:16;1.15;;;0.50;;
15944;SDS011;30172;48.832;8.732;2022-10-15T10:36:42;1.90;;;0.50;;
15944;SDS011;30172;48.832;8.732;2022-10-15T10:39:26;1.58;;;0.55;;
15944;SDS011;30172;48.832;8.732;2022-10-15T10:41:57;1.23;;;0.85;;
15944;SDS011;30172;48.832;8.732;2022-10-15T10:44:27;2.92;;;0.57;;
15944;SDS011;30172;48.832;8.732;2022-10-15T10:47:03;2.08;;;0.60;;
15944;SDS011;30172;48.832;8.732;2022-10-15T10:49:33;3.65;;;0.70;;
15944;SDS011;30172;48.832;8.732;2022-10-15T10:51:59;0.98;;;0.40;;
15944;SDS011;30172;48.832;8.732;2022-10-15T10:54:25;1.65;;;0.50;;
15944;SDS011;30172;48.832;8.732;2022-10-15T10:56:51;1.60;;;0.55;;
15944;SDS011;30172;48.832;8.732;2022-10-15T10:59:29;2.05;;;0.50;;
15944;SDS011;30172;48.832;8.732;2022-10-15T11:01:57;0.55;;;0.40;;
15944;SDS011;30172;48.832;8.732;2022-10-15T11:06:55;0.65;;;0.60;;
15944;SDS011;30172;48.832;8.732;2022-10-15T11:09:43;4.07;;;0.63;;
15944;SDS011;30172;48.832;8.732;2022-10-15T11:12:28;1.27;;;0.60;;
15944;SDS011;30172;48.832;8.732;2022-10-15T11:15:10;1.95;;;0.70;;
15944;SDS011;30172;48.832;8.732;2022-10-15T11:17:48;1.48;;;0.70;;
15944;SDS011;30172;48.832;8.732;2022-10-15T11:20:28;1.30;;;0.80;;
15944;SDS011;30172;48.832;8.732;2022-10-15T11:25:49;1.00;;;0.77;;
15944;SDS011;30172;48.832;8.732;2022-10-15T11:28:22;3.22;;;0.90;;
15944;SDS011;30172;48.832;8.732;2022-10-15T11:30:57;0.63;;;0.63;;
15944;SDS011;30172;48.832;8.732;2022-10-15T11:33:34;1.58;;;0.80;;
15944;SDS011;30172;48.832;8.732;2022-10-15T11:36:27;0.98;;;0.68;;
15944;SDS011;30172;48.832;8.732;2022-10-15T11:39:11;8.80;;;1.30;;
15944;SDS011;30172;48.832;8.732;2022-10-15T11:42:00;2.28;;;1.15;;
15944;SDS011;30172;48.832;8.732;2022-10-15T11:50:34;1.38;;;0.65;;
15944;SDS011;30172;48.832;8.732;2022-10-15T11:53:20;6.85;;;0.70;;
15944;SDS011;30172;48.832;8.732;2022-10-15T11:56:03;1.58;;;0.65;;
15944;SDS011;30172;48.832;8.732;2022-10-15T11:58:35;0.88;;;0.80;;
15944;SDS011;30172;48.832;8.732;2022-10-15T12:01:17;1.95;;;0.50;;
15944;SDS011;30172;48.832;8.732;2022-10-15T12:04:11;0.73;;;0.50;;
15944;SDS011;30172;48.832;8.732;2022-10-15T12:06:42;0.60;;;0.50;;
15944;SDS011;30172;48.832;8.732;2022-10-15T12:09:12;1.60;;;0.73;;
15944;SDS011;30172;48.832;8.732;2022-10-15T12:11:44;6.28;;;1.00;;
15944;SDS011;30172;48.832;8.732;2022-10-15T12:14:16;0.55;;;0.55;;
15944;SDS011;30172;48.832;8.732;2022-10-15T12:16:51;1.17;;;0.50;;
15944;SDS011;30172;48.832;8.732;2022-10-15T12:22:11;1.48;;;0.73;;
15944;SDS011;30172;48.832;8.732;2022-10-15T12:32:35;1.80;;;0.90;;
15944;SDS011;30172;48.832;8.732;2022-10-15T12:35:04;2.33;;;0.52;;
15944;SDS011;30172;48.832;8.732;2022-10-15T12:37:31;1.35;;;1.25;;
15944;SDS011;30172;48.832;8.732;2022-10-15T12:40:06;1.10;;;0.93;;
15944;SDS011;30172;48.832;8.732;2022-10-15T12:42:50;2.60;;;0.60;;
15944;SDS011;30172;48.832;8.732;2022-10-15T12:45:37;0.85;;;0.65;;
15944;SDS011;30172;48.832;8.732;2022-10-15T12:50:29;0.95;;;0.70;;
15944;SDS011;30172;48.832;8.732;2022-10-15T12:53:07;1.75;;;0.70;;
15944;SDS011;30172;48.832;8.732;2022-10-15T12:56:10;1.58;;;1.38;;
15944;SDS011;30172;48.832;8.732;2022-10-15T12:58:51;3.10;;;1.58;;
15944;SDS011;30172;48.832;8.732;2022-10-15T13:08:45;1.95;;;1.10;;
15944;SDS011;30172;48.832;8.732;2022-10-15T13:11:23;1.33;;;0.90;;
15944;SDS011;30172;48.832;8.732;2022-10-15T13:13:52;1.20;;;1.10;;
15944;SDS011;30172;48.832;8.732;2022-10-15T13:16:21;1.40;;;1.30;;
15944;SDS011;30172;48.832;8.732;2022-10-15T13:18:48;1.15;;;0.75;;
15944;SDS011;30172;48.832;8.732;2022-10-15T13:21:14;0.77;;;0.70;;
15944;SDS011;30172;48.832;8.732;2022-10-15T13:23:43;1.73;;;0.80;;
15944;SDS011;30172;48.832;8.732;2022-10-15T13:26:12;2.25;;;0.90;;
15944;SDS011;30172;48.832;8.732;2022-10-15T13:28:43;0.80;;;0.80;;
15944;SDS011;30172;48.832;8.732;2022-10-15T13:31:14;1.15;;;1.00;;
15944;SDS011;30172;48.832;8.732;2022-10-15T13:33:48;1.13;;;1.00;;
15944;SDS011;30172;48.832;8.732;2022-10-15T13:36:25;1.05;;;0.90;;
15944;SDS011;30172;48.832;8.732;2022-10-15T13:38:53;1.00;;;0.90;;
15944;SDS011;30172;48.832;8.732;2022-10-15T13:41:30;2.95;;;0.90;;
15944;SDS011;30172;48.832;8.732;2022-10-15T13:43:58;6.32;;;0.77;;
15944;SDS011;30172;48.832;8.732;2022-10-15T13:46:27;1.50;;;0.90;;
15944;SDS011;30172;48.832;8.732;2022-10-15T13:49:02;2.08;;;0.77;;
15944;SDS011;30172;48.832;8.732;2022-10-15T13:51:34;0.68;;;0.55;;
15944;SDS011;30172;48.832;8.732;2022-10-15T13:54:06;0.68;;;0.68;;
15944;SDS011;30172;48.832;8.732;2022-10-15T13:56:33;0.93;;;0.90;;
15944;SDS011;30172;48.832;8.732;2022-10-15T13:58:59;3.72;;;1.77;;
15944;SDS011;30172;48.832;8.732;2022-10-15T14:01:26;1.13;;;1.00;;
15944;SDS011;30172;48.832;8.732;2022-10-15T14:03:56;2.20;;;2.00;;
15944;SDS011;30172;48.832;8.732;2022-10-15T14:06:26;2.58;;;2.38;;
15944;SDS011;30172;48.832;8.732;2022-10-15T14:09:00;7.95;;;6.97;;
15944;SDS011;30172;48.832;8.732;2022-10-15T14:11:42;5.57;;;5.00;;
15944;SDS011;30172;48.832;8.732;2022-10-15T14:16:56;3.63;;;1.98;;
15944;SDS011;30172;48.832;8.732;2022-10-15T14:19:22;3.20;;;2.10;;
15944;SDS011;30172;48.832;8.732;2022-10-15T14:21:54;8.45;;;6.88;;
15944;SDS011;30172;48.832;8.732;2022-10-15T14:24:20;2.30;;;2.10;;
15944;SDS011;30172;48.832;8.732;2022-10-15T14:26:47;0.95;;;0.90;;
15944;SDS011;30172;48.832;8.732;2022-10-15T14:29:18;1.42;;;0.95;;
15944;SDS011;30172;48.832;8.732;2022-10-15T14:31:46;1.48;;;1.00;;
15944;SDS011;30172;48.832;8.732;2022-10-15T14:34:34;1.15;;;1.05;;
15944;SDS011;30172;48.832;8.732;2022-10-15T14:37:25;2.90;;;0.80;;
15944;SDS011;30172;48.832;8.732;2022-10-15T14:40:22;0.85;;;0.85;;
15944;SDS011;30172;48.832;8.732;2022-10-15T14:43:33;2.28;;;1.17;;
15944;SDS011;30172;48.832;8.732;2022-10-15T14:48:18;1.58;;;0.80;;
15944;SDS011;30172;48.832;8.732;2022-10-15T14:50:45;0.70;;;0.70;;
15944;SDS011;30172;48.832;8.732;2022-10-15T14:53:20;1.63;;;0.80;;
15944;SDS011;30172;48.832;8.732;2022-10-15T14:55:50;1.85;;;0.70;;
15944;SDS011;30172;48.832;8.732;2022-10-15T14:58:18;1.27;;;0.70;;
15944;SDS011;30172;48.832;8.732;2022-10-15T15:00:45;1.17;;;1.08;;
15944;SDS011;30172;48.832;8.732;2022-10-15T15:03:17;2.53;;;1.10;;
15944;SDS011;30172;48.832;8.732;2022-10-15T15:05:48;1.25;;;0.90;;
15944;SDS011;30172;48.832;8.732;2022-10-15T15:08:17;0.95;;;0.90;;
15944;SDS011;30172;48.832;8.732;2022-10-15T15:10:43;1.02;;;0.90;;
15944;SDS011;30172;48.832;8.732;2022-10-15T15:13:12;1.50;;;0.77;;
15944;SDS011;30172;48.832;8.732;2022-10-15T15:15:40;1.05;;;0.80;;
15944;SDS011;30172;48.832;8.732;2022-10-15T15:18:07;0.60;;;0.50;;
15944;SDS011;30172;48.832;8.732;2022-10-15T15:20:36;1.73;;;0.70;;
15944;SDS011;30172;48.832;8.732;2022-10-15T15:23:02;0.77;;;0.60;;
15944;SDS011;30172;48.832;8.732;2022-10-15T15:25:28;2.88;;;0.80;;
15944;SDS011;30172;48.832;8.732;2022-10-15T15:27:55;3.15;;;0.70;;
15944;SDS011;30172;48.832;8.732;2022-10-15T15:30:22;1.63;;;0.77;;
15944;SDS011;30172;48.832;8.732;2022-10-15T15:32:49;0.60;;;0.60;;
15944;SDS011;30172;48.832;8.732;2022-10-15T15:35:35;1.20;;;0.60;;
15944;SDS011;30172;48.832;8.732;2022-10-15T15:38:04;0.73;;;0.60;;
15944;SDS011;30172;48.832;8.732;2022-10-15T15:40:30;1.27;;;0.60;;
15944;SDS011;30172;48.832;8.732;2022-10-15T15:42:56;1.73;;;0.80;;
15944;SDS011;30172;48.832;8.732;2022-10-15T15:45:22;1.13;;;0.60;;
15944;SDS011;30172;48.832;8.732;2022-10-15T15:47:49;2.28;;;0.70;;
15944;SDS011;30172;48.832;8.732;2022-10-15T15:50:14;1.80;;;0.70;;
15944;SDS011;30172;48.832;8.732;2022-10-15T15:52:40;1.60;;;0.80;;
15944;SDS011;30172;48.832;8.732;2022-10-15T15:55:06;1.27;;;0.70;;
15944;SDS011;30172;48.832;8.732;2022-10-15T15:57:31;2.65;;;0.90;;
15944;SDS011;30172;48.832;8.732;2022-10-15T15:59:57;1.77;;;0.80;;
15944;SDS011;30172;48.832;8.732;2022-10-15T16:02:22;1.30;;;0.60;;
15944;SDS011;30172;48.832;8.732;2022-10-15T16:04:47;2.25;;;0.68;;
15944;SDS011;30172;48.832;8.732;2022-10-15T16:07:13;1.05;;;0.85;;
15944;SDS011;30172;48.832;8.732;2022-10-15T16:09:38;0.77;;;0.70;;
15944;SDS011;30172;48.832;8.732;2022-10-15T16:12:03;1.88;;;1.27;;
15944;SDS011;30172;48.832;8.732;2022-10-15T16:14:29;1.00;;;0.88;;
15944;SDS011;30172;48.832;8.732;2022-10-15T16:16:56;1.30;;;1.00;;
15944;SDS011;30172;48.832;8.732;2022-10-15T16:19:21;0.93;;;0.80;;
15944;SDS011;30172;48.832;8.732;2022-10-15T16:21:46;1.50;;;0.60;;
15944;SDS011;30172;48.832;8.732;2022-10-15T16:24:12;0.60;;;0.60;;
15944;SDS011;30172;48.832;8.732;2022-10-15T16:26:37;1.67;;;0.80;;
15944;SDS011;30172;48.832;8.732;2022-10-15T16:29:02;0.70;;;0.60;;
15944;SDS011;30172;48.832;8.732;2022-10-15T16:31:27;1.55;;;0.50;;
15944;SDS011;30172;48.832;8.732;2022-10-15T16:33:53;1.67;;;0.55;;
15944;SDS011;30172;48.832;8.732;2022-10-15T16:36:19;2.65;;;0.70;;